createdAt,value
2018-06-19T00:01:50.782Z,20.53
2018-06-19T00:04:19.277Z,20.48
2018-06-19T00:06:47.538Z,20.50
2018-06-19T00:09:15.794Z,20.49
2018-06-19T00:11:44.191Z,20.59
2018-06-19T00:14:12.327Z,20.68
2018-06-19T00:16:40.634Z,20.60
2018-06-19T00:19:09.040Z,20.39
2018-06-19T00:21:40.064Z,20.36
2018-06-19T00:24:08.775Z,20.53
2018-06-19T00:26:37.147Z,20.43
2018-06-19T00:29:05.285Z,20.16
2018-06-19T00:31:33.649Z,19.96
2018-06-19T00:34:01.749Z,19.98
2018-06-19T00:36:29.807Z,20.03
2018-06-19T00:38:58.143Z,20.14
2018-06-19T00:41:26.266Z,20.12
2018-06-19T00:43:54.382Z,20.00
2018-06-19T00:46:25.200Z,20.04
2018-06-19T00:48:53.371Z,20.03
2018-06-19T00:51:21.434Z,19.79
2018-06-19T00:53:49.697Z,19.86
2018-06-19T00:56:29.215Z,19.90
2018-06-19T00:58:57.255Z,19.92
2018-06-19T01:01:25.611Z,19.90
2018-06-19T01:03:53.688Z,20.12
2018-06-19T01:06:21.783Z,19.94
2018-06-19T01:08:50.050Z,19.98
2018-06-19T01:11:18.418Z,19.87
2018-06-19T01:13:47.540Z,19.84
2018-06-19T01:16:15.619Z,19.98
2018-06-19T01:18:43.691Z,19.83
2018-06-19T01:21:11.835Z,19.73
2018-06-19T01:23:40.006Z,19.80
2018-06-19T01:26:09.478Z,19.76
2018-06-19T01:28:37.585Z,19.67
2018-06-19T01:31:05.857Z,19.67
2018-06-19T01:33:33.987Z,19.62
2018-06-19T01:36:02.075Z,19.56
2018-06-19T01:38:30.157Z,19.79
2018-06-19T01:40:58.569Z,19.59
2018-06-19T01:43:26.655Z,19.54
2018-06-19T01:45:54.771Z,19.48
2018-06-19T01:48:22.818Z,19.57
2018-06-19T01:50:50.889Z,19.59
2018-06-19T01:53:19.826Z,19.57
2018-06-19T01:55:47.904Z,19.45
2018-06-19T01:58:16.098Z,19.56
2018-06-19T02:00:44.367Z,19.41
2018-06-19T02:03:12.439Z,19.36
2018-06-19T02:05:40.826Z,19.24
2018-06-19T02:08:09.080Z,19.19
2018-06-19T02:10:37.317Z,19.31
2018-06-19T02:13:05.458Z,19.13
2018-06-19T02:15:33.626Z,19.27
2018-06-19T02:18:01.823Z,19.21
2018-06-19T02:20:29.874Z,18.97
2018-06-19T02:22:58.070Z,19.07
2018-06-19T02:25:26.149Z,19.00
2018-06-19T02:27:54.279Z,19.04
2018-06-19T02:30:22.359Z,18.93
2018-06-19T02:32:50.574Z,19.01
2018-06-19T02:35:18.861Z,18.88
2018-06-19T02:37:46.957Z,19.21
2018-06-19T02:40:15.063Z,18.98
2018-06-19T02:42:43.371Z,19.10
2018-06-19T02:45:11.459Z,18.95
2018-06-19T02:47:39.731Z,19.02
2018-06-19T02:50:07.849Z,19.05
2018-06-19T02:52:35.908Z,19.01
2018-06-19T02:55:04.040Z,19.18
2018-06-19T02:57:32.190Z,18.96
2018-06-19T03:00:00.268Z,18.97
2018-06-19T03:02:28.346Z,18.92
2018-06-19T03:04:56.426Z,19.01
2018-06-19T03:07:24.728Z,18.88
2018-06-19T03:09:52.844Z,18.84
2018-06-19T03:12:20.924Z,18.86
2018-06-19T03:14:49.180Z,18.85
2018-06-19T03:17:17.535Z,19.06
2018-06-19T03:19:45.642Z,18.85
2018-06-19T03:22:13.727Z,18.73
2018-06-19T03:24:41.888Z,18.88
2018-06-19T03:27:10.053Z,18.89
2018-06-19T03:29:38.938Z,18.79
2018-06-19T03:32:07.078Z,18.83
2018-06-19T03:34:35.199Z,18.63
2018-06-19T03:37:03.312Z,18.72
2018-06-19T03:39:31.451Z,18.72
2018-06-19T03:41:59.664Z,18.65
2018-06-19T03:44:27.782Z,18.61
2018-06-19T03:46:55.865Z,18.58
2018-06-19T03:49:23.975Z,18.52
2018-06-19T03:51:52.071Z,18.58
2018-06-19T03:54:20.559Z,18.61
2018-06-19T03:56:48.641Z,18.33
2018-06-19T03:59:16.726Z,18.51
2018-06-19T04:01:44.836Z,18.46
2018-06-19T04:04:12.871Z,18.40
2018-06-19T04:06:41.286Z,18.45
2018-06-19T04:09:09.365Z,18.52
2018-06-19T04:11:37.919Z,18.43
2018-06-19T04:14:05.993Z,18.53
2018-06-19T04:16:34.207Z,18.48
2018-06-19T04:19:02.287Z,18.54
2018-06-19T04:21:30.659Z,18.47
2018-06-19T04:23:58.942Z,18.47
2018-06-19T04:26:27.019Z,18.54
2018-06-19T04:28:55.798Z,18.69
2018-06-19T04:31:23.916Z,18.54
2018-06-19T04:33:52.056Z,18.57
2018-06-19T04:36:20.668Z,18.44
2018-06-19T04:38:48.876Z,18.45
2018-06-19T04:41:17.094Z,18.54
2018-06-19T04:43:45.266Z,18.67
2018-06-19T04:46:13.566Z,18.71
2018-06-19T04:48:41.647Z,18.53
2018-06-19T04:51:09.731Z,18.59
2018-06-19T04:53:37.830Z,18.67
2018-06-19T04:56:05.976Z,18.81
2018-06-19T04:58:34.047Z,18.74
2018-06-19T05:01:02.123Z,18.88
2018-06-19T05:03:30.247Z,18.67
2018-06-19T05:05:58.393Z,18.83
2018-06-19T05:08:26.786Z,18.94
2018-06-19T05:10:54.895Z,18.92
2018-06-19T05:13:23.011Z,19.19
2018-06-19T05:15:51.107Z,19.22
2018-06-19T05:18:19.378Z,19.20
2018-06-19T05:20:47.458Z,19.03
2018-06-19T05:23:15.676Z,18.98
2018-06-19T05:25:43.838Z,18.87
2018-06-19T05:28:11.975Z,18.82
2018-06-19T05:30:40.416Z,18.84
2018-06-19T05:33:10.419Z,19.05
2018-06-19T05:35:38.630Z,19.09
2018-06-19T05:38:06.721Z,19.17
2018-06-19T05:40:34.836Z,19.35
2018-06-19T05:43:02.979Z,19.21
2018-06-19T05:45:31.163Z,19.17
2018-06-19T05:47:59.536Z,19.47
2018-06-19T05:50:27.790Z,19.46
2018-06-19T05:52:56.193Z,19.56
2018-06-19T05:55:24.454Z,19.75
2018-06-19T05:57:52.600Z,19.81
2018-06-19T06:00:28.917Z,19.77
2018-06-19T06:03:00.607Z,19.76
2018-06-19T06:05:28.781Z,19.84
2018-06-19T06:07:57.113Z,19.87
2018-06-19T06:10:25.474Z,19.89
2018-06-19T06:12:53.572Z,19.77
2018-06-19T06:15:21.946Z,19.61
2018-06-19T06:17:51.298Z,19.88
2018-06-19T06:20:19.399Z,19.86
2018-06-19T06:22:47.614Z,19.86
2018-06-19T06:25:15.760Z,19.93
2018-06-19T06:27:43.939Z,19.91
2018-06-19T06:30:12.022Z,19.73
2018-06-19T06:32:40.099Z,19.61
2018-06-19T06:35:08.219Z,19.92
2018-06-19T06:37:36.416Z,20.19
2018-06-19T06:40:04.697Z,20.10
2018-06-19T06:42:32.814Z,19.88
2018-06-19T06:45:01.115Z,20.22
2018-06-19T06:47:29.299Z,20.21
2018-06-19T06:49:57.362Z,20.36
2018-06-19T06:52:25.621Z,20.49
2018-06-19T06:54:53.798Z,20.46
2018-06-19T06:57:21.943Z,20.56
2018-06-19T06:59:50.081Z,20.78
2018-06-19T07:02:18.293Z,20.86
2018-06-19T07:04:46.407Z,20.82
2018-06-19T07:07:14.679Z,20.99
2018-06-19T07:09:42.787Z,20.77
2018-06-19T07:12:11.008Z,20.63
2018-06-19T07:14:39.132Z,20.76
2018-06-19T07:17:07.507Z,20.57
2018-06-19T07:19:35.693Z,20.73
2018-06-19T07:22:03.858Z,20.96
2018-06-19T07:24:31.930Z,20.77
2018-06-19T07:27:00.545Z,20.96
2018-06-19T07:29:28.690Z,21.03
2018-06-19T07:31:56.796Z,21.00
2018-06-19T07:34:24.969Z,21.08
2018-06-19T07:36:53.188Z,21.27
2018-06-19T07:39:21.683Z,21.18
2018-06-19T07:41:50.720Z,21.35
2018-06-19T07:44:18.799Z,21.66
2018-06-19T07:46:46.918Z,21.16
2018-06-19T07:49:15.067Z,21.37
2018-06-19T07:51:43.182Z,21.40
2018-06-19T07:54:11.390Z,21.52
2018-06-19T07:56:39.972Z,21.50
2018-06-19T07:59:08.128Z,21.73
2018-06-19T08:01:36.278Z,21.57
2018-06-19T08:04:05.628Z,21.44
2018-06-19T08:06:33.983Z,21.76
2018-06-19T08:09:02.079Z,22.24
2018-06-19T08:11:30.294Z,22.18
2018-06-19T08:13:58.340Z,22.12
2018-06-19T08:16:26.438Z,21.89
2018-06-19T08:18:54.616Z,22.04
2018-06-19T08:21:22.994Z,22.14
2018-06-19T08:23:51.951Z,22.25
2018-06-19T08:26:20.539Z,22.29
2018-06-19T08:28:48.671Z,22.31
2018-06-19T08:31:16.910Z,22.51
2018-06-19T08:33:44.948Z,22.69
2018-06-19T08:36:13.084Z,22.71
2018-06-19T08:38:42.428Z,22.72
2018-06-19T08:41:10.603Z,22.90
2018-06-19T08:43:38.761Z,22.96
2018-06-19T08:46:06.827Z,22.65
2018-06-19T08:48:35.001Z,22.54
2018-06-19T08:51:03.126Z,22.91
2018-06-19T08:53:31.302Z,23.07
2018-06-19T08:55:59.394Z,23.20
2018-06-19T08:58:27.466Z,23.12
2018-06-19T09:00:56.644Z,23.19
2018-06-19T09:03:24.793Z,23.39
2018-06-19T09:05:52.873Z,23.81
2018-06-19T09:08:21.239Z,22.93
2018-06-19T09:10:49.310Z,23.04
2018-06-19T09:13:18.308Z,23.34
2018-06-19T09:15:46.495Z,23.25
2018-06-19T09:18:14.871Z,23.45
2018-06-19T09:20:43.110Z,23.10
2018-06-19T09:23:11.386Z,22.97
2018-06-19T09:25:39.479Z,23.24
2018-06-19T09:28:07.635Z,23.46
2018-06-19T09:30:36.538Z,22.98
2018-06-19T09:33:04.911Z,23.46
2018-06-19T09:35:33.112Z,23.57
2018-06-19T09:38:01.400Z,23.25
2018-06-19T09:40:29.511Z,23.41
2018-06-19T09:42:57.634Z,23.29
2018-06-19T09:45:25.747Z,22.96
2018-06-19T09:47:53.932Z,23.27
2018-06-19T09:50:22.332Z,23.09
2018-06-19T09:52:50.431Z,23.19
2018-06-19T09:55:18.520Z,22.63
2018-06-19T09:57:46.687Z,22.79
2018-06-19T10:00:49.357Z,22.89
2018-06-19T10:03:17.645Z,23.40
2018-06-19T10:05:45.866Z,23.13
2018-06-19T10:08:25.090Z,23.40
2018-06-19T10:11:09.991Z,23.17
2018-06-19T10:13:38.299Z,23.43
2018-06-19T10:16:06.385Z,23.23
2018-06-19T10:18:34.627Z,23.09
2018-06-19T10:21:02.940Z,23.05
2018-06-19T10:23:31.050Z,22.83
2018-06-19T10:25:59.172Z,23.14
2018-06-19T10:28:27.212Z,23.16
2018-06-19T10:30:55.443Z,22.58
2018-06-19T10:33:23.614Z,22.76
2018-06-19T10:35:52.394Z,22.71
2018-06-19T10:38:20.490Z,22.93
2018-06-19T10:40:48.611Z,23.02
2018-06-19T10:43:16.744Z,23.47
2018-06-19T10:45:44.842Z,23.72
2018-06-19T10:48:14.363Z,24.03
2018-06-19T10:50:42.592Z,24.10
2018-06-19T10:53:10.716Z,23.85
2018-06-19T10:55:38.790Z,24.09
2018-06-19T10:58:07.047Z,24.09
2018-06-19T11:00:35.125Z,24.25
2018-06-19T11:03:03.317Z,24.05
2018-06-19T11:05:31.424Z,24.10
2018-06-19T11:07:59.495Z,24.24
2018-06-19T11:10:27.827Z,24.40
2018-06-19T11:12:55.933Z,24.51
2018-06-19T11:15:24.109Z,24.37
2018-06-19T11:17:52.658Z,24.29
2018-06-19T11:20:20.850Z,23.95
2018-06-19T11:22:48.911Z,23.91
2018-06-19T11:25:16.987Z,23.81
2018-06-19T11:27:45.092Z,24.22
2018-06-19T11:30:13.255Z,24.48
2018-06-19T11:32:41.447Z,24.38
2018-06-19T11:35:09.514Z,24.50
2018-06-19T11:37:37.596Z,24.47
2018-06-19T11:40:05.658Z,24.54
2018-06-19T11:42:33.744Z,24.53
2018-06-19T11:45:01.823Z,24.27
2018-06-19T11:47:30.074Z,24.11
2018-06-19T11:49:58.141Z,24.00
2018-06-19T11:52:26.255Z,24.50
2018-06-19T11:54:55.264Z,24.00
2018-06-19T11:57:23.460Z,24.04
2018-06-19T11:59:51.582Z,24.66
2018-06-19T12:02:19.678Z,24.73
2018-06-19T12:04:47.796Z,24.83
2018-06-19T12:07:15.871Z,24.97
2018-06-19T12:09:44.108Z,25.09
2018-06-19T12:12:12.278Z,25.02
2018-06-19T12:14:40.368Z,25.05
2018-06-19T12:17:08.765Z,26.01
2018-06-19T12:19:36.845Z,28.56
2018-06-19T12:22:04.938Z,29.63
2018-06-19T12:24:33.563Z,31.12
2018-06-19T12:27:01.643Z,32.48
2018-06-19T12:29:29.730Z,33.50
2018-06-19T12:31:57.827Z,29.76
2018-06-19T12:34:25.922Z,31.56
2018-06-19T12:36:54.063Z,32.08
2018-06-19T12:39:23.131Z,31.52
2018-06-19T12:41:51.226Z,31.11
2018-06-19T12:44:19.324Z,30.39
2018-06-19T12:46:47.619Z,31.66
2018-06-19T12:50:23.939Z,28.24
2018-06-19T12:53:04.345Z,26.47
2018-06-19T12:55:43.940Z,26.96
2018-06-19T12:58:12.152Z,27.79
2018-06-19T13:00:40.254Z,29.28
2018-06-19T13:03:19.711Z,27.98
2018-06-19T13:05:59.201Z,26.97
2018-06-19T13:08:27.275Z,28.11
2018-06-19T13:10:55.350Z,27.93
2018-06-19T13:13:35.066Z,27.77
2018-06-19T13:16:03.261Z,28.07
2018-06-19T13:18:43.310Z,27.98
2018-06-19T13:21:11.485Z,28.77
2018-06-19T13:23:39.672Z,28.07
2018-06-19T13:26:07.886Z,28.01
2018-06-19T13:30:05.203Z,28.28
2018-06-19T13:32:33.984Z,27.37
2018-06-19T13:35:03.391Z,27.90
2018-06-19T13:37:31.501Z,27.07
2018-06-19T13:41:11.529Z,28.08
2018-06-19T13:43:50.887Z,28.27
2018-06-19T13:46:19.031Z,28.16
2018-06-19T13:48:47.167Z,26.49
2018-06-19T13:51:15.466Z,27.14
2018-06-19T13:53:44.394Z,27.90
2018-06-19T13:57:27.398Z,28.12
2018-06-19T13:59:55.590Z,27.58
2018-06-19T14:02:23.739Z,28.29
2018-06-19T14:04:53.171Z,28.31
2018-06-19T14:07:22.468Z,26.92
2018-06-19T14:10:01.956Z,27.15
2018-06-19T14:13:05.941Z,27.75
2018-06-19T14:15:38.282Z,26.88
2018-06-19T14:18:06.691Z,27.25
2018-06-19T14:20:34.814Z,27.37
2018-06-19T14:23:02.982Z,27.47
2018-06-19T14:25:31.057Z,26.85
2018-06-19T14:27:59.133Z,26.59
2018-06-19T14:30:27.355Z,26.85
2018-06-19T14:32:55.510Z,27.38
2018-06-19T14:35:23.615Z,26.83
2018-06-19T14:37:51.891Z,26.33
2018-06-19T14:40:20.231Z,26.10
2018-06-19T14:42:48.477Z,26.38
2018-06-19T14:45:16.540Z,26.40
2018-06-19T14:47:45.014Z,26.15
2018-06-19T14:50:13.539Z,26.15
2018-06-19T14:52:41.618Z,26.28
2018-06-19T14:55:10.577Z,25.91
2018-06-19T14:57:39.052Z,25.80
2018-06-19T15:00:08.524Z,25.88
2018-06-19T15:02:36.647Z,25.51
2018-06-19T15:05:05.279Z,26.16
2018-06-19T15:07:37.194Z,26.21
2018-06-19T15:10:07.277Z,25.94
2018-06-19T15:12:35.459Z,26.38
2018-06-19T15:15:03.592Z,26.35
2018-06-19T15:17:31.778Z,26.51
2018-06-19T15:20:00.266Z,26.36
2018-06-19T15:22:28.527Z,26.29
2018-06-19T15:24:56.649Z,26.08
2018-06-19T15:27:24.933Z,26.56
2018-06-19T15:29:53.795Z,26.68
2018-06-19T15:32:22.265Z,26.47
2018-06-19T15:34:50.486Z,25.98
2018-06-19T15:37:18.668Z,26.21
2018-06-19T15:39:46.870Z,26.21
2018-06-19T15:42:15.109Z,26.60
2018-06-19T15:44:43.248Z,26.70
2018-06-19T15:47:11.340Z,26.73
2018-06-19T15:49:39.520Z,26.51
2018-06-19T15:52:07.715Z,26.91
2018-06-19T15:54:35.967Z,26.97
2018-06-19T15:57:04.266Z,26.54
2018-06-19T15:59:32.378Z,26.20
2018-06-19T16:02:00.477Z,25.92
2018-06-19T16:04:28.632Z,26.15
2018-06-19T16:06:56.868Z,26.23
2018-06-19T16:09:25.000Z,26.27
2018-06-19T16:11:53.890Z,26.55
2018-06-19T16:14:21.987Z,26.40
2018-06-19T16:16:50.138Z,26.16
2018-06-19T16:19:18.290Z,26.34
2018-06-19T16:21:46.615Z,26.47
2018-06-19T16:24:14.906Z,26.71
2018-06-19T16:26:43.345Z,26.14
2018-06-19T16:29:11.434Z,26.25
2018-06-19T16:31:39.692Z,26.30
2018-06-19T16:34:07.806Z,26.09
2018-06-19T16:36:36.016Z,26.00
2018-06-19T16:39:06.731Z,25.98
2018-06-19T16:41:34.886Z,25.96
2018-06-19T16:44:05.082Z,25.88
2018-06-19T16:46:33.238Z,25.94
2018-06-19T16:49:01.405Z,25.86
2018-06-19T16:51:29.538Z,25.82
2018-06-19T16:53:57.868Z,26.11
2018-06-19T16:56:26.390Z,26.08
2018-06-19T16:58:54.686Z,25.92
2018-06-19T17:01:22.998Z,26.02
2018-06-19T17:03:51.107Z,26.04
2018-06-19T17:06:19.210Z,25.24
2018-06-19T17:08:47.359Z,25.44
2018-06-19T17:11:15.482Z,26.02
2018-06-19T17:13:43.590Z,25.71
2018-06-19T17:16:11.920Z,25.71
2018-06-19T17:18:40.446Z,26.00
2018-06-19T17:21:08.573Z,25.80
2018-06-19T17:23:36.674Z,25.80
2018-06-19T17:26:05.015Z,25.43
2018-06-19T17:28:33.156Z,25.62
2018-06-19T17:31:01.260Z,25.61
2018-06-19T17:33:29.567Z,25.84
2018-06-19T17:35:57.626Z,25.49
2018-06-19T17:38:25.815Z,25.59
2018-06-19T17:40:54.503Z,25.64
2018-06-19T17:43:22.809Z,25.67
2018-06-19T17:45:50.867Z,25.90
2018-06-19T17:48:19.033Z,25.84
2018-06-19T17:50:47.310Z,25.88
2018-06-19T17:53:15.569Z,25.97
2018-06-19T17:55:43.933Z,25.84
2018-06-19T17:58:12.106Z,25.82
2018-06-19T18:00:40.268Z,25.72
2018-06-19T18:03:08.379Z,25.63
2018-06-19T18:05:36.694Z,25.74
2018-06-19T18:08:05.081Z,25.73
2018-06-19T18:10:33.163Z,25.55
2018-06-19T18:13:01.428Z,25.73
2018-06-19T18:15:29.537Z,25.74
2018-06-19T18:17:57.610Z,25.55
2018-06-19T18:20:25.748Z,25.75
2018-06-19T18:22:54.551Z,25.77
2018-06-19T18:25:22.692Z,25.72
2018-06-19T18:27:50.875Z,25.72
2018-06-19T18:30:19.023Z,25.77
2018-06-19T18:32:47.367Z,25.70
2018-06-19T18:35:15.545Z,25.68
2018-06-19T18:37:43.706Z,25.62
2018-06-19T18:40:11.794Z,25.44
2018-06-19T18:42:41.051Z,25.49
2018-06-19T18:45:09.245Z,25.62
2018-06-19T18:47:37.391Z,25.46
2018-06-19T18:50:05.975Z,25.44
2018-06-19T18:52:34.282Z,25.40
2018-06-19T18:55:02.703Z,25.40
2018-06-19T18:57:30.818Z,25.38
2018-06-19T18:59:59.141Z,25.34
2018-06-19T19:02:27.223Z,25.26
2018-06-19T19:04:55.590Z,25.27
2018-06-19T19:15:54.039Z,25.28
2018-06-19T19:18:27.315Z,25.06
2018-06-19T19:20:56.559Z,25.02
2018-06-19T19:23:24.944Z,25.08
2018-06-19T19:25:53.067Z,24.87
2018-06-19T19:28:26.514Z,24.94
2018-06-19T19:30:55.050Z,24.91
2018-06-19T19:33:24.143Z,24.87
2018-06-19T19:35:52.449Z,24.89
2018-06-19T19:38:26.124Z,24.78
2018-06-19T19:40:54.943Z,24.73
2018-06-19T19:43:23.059Z,24.66
2018-06-19T19:45:51.201Z,24.57
2018-06-19T19:48:24.559Z,24.56
2018-06-19T19:50:53.010Z,24.33
2018-06-19T19:53:21.174Z,24.29
2018-06-19T19:55:54.831Z,24.49
2018-06-19T19:58:28.359Z,24.45
2018-06-19T20:00:56.619Z,24.44
2018-06-19T20:03:25.011Z,24.27
2018-06-19T20:05:53.279Z,24.25
2018-06-19T20:08:23.055Z,24.36
2018-06-19T20:10:52.027Z,24.28
2018-06-19T20:13:20.243Z,24.07
2018-06-19T20:15:49.006Z,24.11
2018-06-19T20:18:17.242Z,23.98
2018-06-19T20:20:45.474Z,23.97
2018-06-19T20:23:13.617Z,24.02
2018-06-19T20:25:41.679Z,24.05
2018-06-19T20:28:09.835Z,23.96
2018-06-19T20:30:38.167Z,23.96
2018-06-19T20:33:06.345Z,23.99
2018-06-19T20:35:34.483Z,23.86
2018-06-19T20:38:02.692Z,23.72
2018-06-19T20:40:30.808Z,23.68
2018-06-19T20:42:58.928Z,23.73
2018-06-19T20:45:27.071Z,23.72
2018-06-19T20:47:55.450Z,23.75
2018-06-19T20:50:23.547Z,23.86
2018-06-19T20:52:51.698Z,23.84
2018-06-19T20:55:19.779Z,23.51
2018-06-19T20:57:48.033Z,23.32
2018-06-19T21:00:16.098Z,23.44
2018-06-19T21:02:44.188Z,23.32
2018-06-19T21:05:12.251Z,23.43
2018-06-19T21:07:40.970Z,23.21
2018-06-19T21:10:09.669Z,22.99
2018-06-19T21:12:38.024Z,23.02
2018-06-19T21:15:06.115Z,23.09
2018-06-19T21:17:34.434Z,23.06
2018-06-19T21:20:02.538Z,22.92
2018-06-19T21:22:30.647Z,22.95
2018-06-19T21:24:58.798Z,22.92
2018-06-19T21:27:26.996Z,22.95
2018-06-19T21:29:55.496Z,23.01
2018-06-19T21:32:54.180Z,22.84
2018-06-19T21:35:22.308Z,22.51
2018-06-19T21:37:50.355Z,22.51
2018-06-19T21:40:18.708Z,22.61
2018-06-19T21:42:47.109Z,22.69
2018-06-19T21:45:15.264Z,22.69
2018-06-19T21:47:43.350Z,22.74
2018-06-19T21:50:12.434Z,22.59
2018-06-19T21:52:40.560Z,22.64
2018-06-19T21:55:08.916Z,22.44
2018-06-19T21:57:37.104Z,22.30
2018-06-19T22:00:05.694Z,22.31
2018-06-19T22:02:34.107Z,22.08
2018-06-19T22:05:03.912Z,22.16
2018-06-19T22:07:32.546Z,22.42
2018-06-19T22:10:00.612Z,22.68
2018-06-19T22:12:28.829Z,22.66
2018-06-19T22:14:56.980Z,22.86
2018-06-19T22:17:25.667Z,22.76
2018-06-19T22:19:53.842Z,22.74
2018-06-19T22:22:21.941Z,22.64
2018-06-19T22:24:50.060Z,22.45
2018-06-19T22:27:18.340Z,22.61
2018-06-19T22:29:46.475Z,22.41
2018-06-19T22:32:14.735Z,22.67
2018-06-19T22:34:43.031Z,22.44
2018-06-19T22:37:14.348Z,22.68
2018-06-19T22:39:45.264Z,22.59
2018-06-19T22:42:16.825Z,22.63
2018-06-19T22:44:45.335Z,22.64
2018-06-19T22:47:13.416Z,22.64
2018-06-19T22:49:41.482Z,22.54
2018-06-19T22:52:09.616Z,22.57
2018-06-19T22:54:37.702Z,22.57
2018-06-19T22:57:05.779Z,22.31
2018-06-19T22:59:34.237Z,22.53
2018-06-19T23:02:02.543Z,22.54
2018-06-19T23:04:31.110Z,22.55
2018-06-19T23:06:59.226Z,22.50
2018-06-19T23:09:27.360Z,22.46
2018-06-19T23:11:55.911Z,22.45
2018-06-19T23:14:24.099Z,22.50
2018-06-19T23:16:52.551Z,22.56
2018-06-19T23:19:20.636Z,22.63
2018-06-19T23:21:48.893Z,22.52
2018-06-19T23:24:24.247Z,22.54
2018-06-19T23:26:52.853Z,22.45
2018-06-19T23:29:21.247Z,22.37
2018-06-19T23:31:51.446Z,22.35
2018-06-19T23:34:19.519Z,22.33
2018-06-19T23:36:47.709Z,22.23
2018-06-19T23:39:17.776Z,22.11
2018-06-19T23:41:47.091Z,22.12
2018-06-19T23:44:16.449Z,22.15
2018-06-19T23:46:45.692Z,22.18
2018-06-19T23:49:15.948Z,22.19
2018-06-19T23:51:45.820Z,22.27
2018-06-19T23:54:16.056Z,22.09
2018-06-19T23:56:45.541Z,22.06
2018-06-19T23:59:15.789Z,22.22
